Edina, MO (63537)

1:10 PM CDT on September 01, 2015 (GMT -0500)
La Plata | | Change Station
CLOSE
Current Station
Personal Weather Station
Location: La Plata, MO
Elevation: 928 ft
Nearby Weather Stations

Elev 928 ft 40.03 °N, 92.48 °W | Updated 1 second ago

Clear
Clear
91.0 °F
Feels Like 97 °F
N
3.8
Wind Variable Wind from NE
Gusts 8.3 mph

Today
High -- | Low -- °F
--% Chance of Precip.
Yesterday
High -- | Low -- °F
Precip. -- in
6:36 AM 7:40 PM
Waning Gibbous, 87% visible
Pressure 30.03 in
Visibility 10.0 miles
Clouds Clear
Heat Index 97 °F
Dew Point 70 °F
Humidity 51%
Rainfall 0.00 in
Snow Depth Not available.
UV 9 out of 12
Pollen 10.80 out of 12
Air Quality Not available.
Flu Activity Not available.
METAR KIRK 011755Z AUTO 21009KT 10SM CLR 31/20 A3005 RMK AO2 SLP169 T03110200 10311 20211 58006
Pressure 30.03 in
Visibility 10.0 miles
Clouds Clear
Heat Index 97 °F
Dew Point 70 °F
Humidity 51%
Rainfall 0.00 in
Snow Depth Not available.
UV 9 out of 12
Pollen 10.80 out of 12
Air Quality Not available.
Flu Activity Not available.
METAR KIRK 011755Z AUTO 21009KT 10SM CLR 31/20 A3005 RMK AO2 SLP169 T03110200 10311 20211 58006

10-Day Weather Forecast

×

Almanac

Astronomy

Sep. 01, 2015 Rise Set
Actual Time
Civil Twilight
Nautical Twilight
Astronomical Twilight
Moon
Length of Visible Light
Length of Day
Tomorrow will be .
, % of the Moon is Illuminated

Today's Extremes

State Highs State Lows

Community

WunderPhotos

Upload Photos

1,851,592 photos uploaded!

WunderBlogs® & News

Nearby

Air Quality

  Air Quality AQ Index Pollutant
Not available.

Snow Depth

Station Depth Elevation

Earthquake Activity

City Distance Mag. Time & Date
Minimum magnitude displayed is 2.5.

Coastal Water Temperatures

Place Temperature

Stations

Nearby Weather Stations

Station Location Temp. Windchill Dew Point Humidity Wind Precip. Elev Updated Type